KCHD

Chandler Municipal Airport

Chandler, Arizona, USA
METAR KCHD 151847Z 00000KT 10SM CLR 20/M07 A3019
Observed Flight Rules
Dec-15 @ 18:47 UTC (53 minutes ago) Visual Flight Rules
Wind Visibility Clouds
Calm 10 miles
  • Clear skies
Temperatures Readings
Current 20°C / 68°F
Dewpoint -7°C / 19°F
Humidity 16%
Altimeter 30.19" Hg
Pressure 1022 hPa
Elevation 379
METAR KCHD 151847Z 00000KT 10SM CLR 20/M07 A3019
Observed Flight Rules
Dec-15 @ 18:47 UTC
(53 minutes ago)
VFR
Wind Visibility
Calm 10 miles
Clouds
  • Clear skies
Temperature Dewpoint
20°C / 68°F -7°C / 19°F
Humidity Altimeter Pressure
16% 30.19" Hg 1022 hPa